< < Back
Terminal Aerodrome Forecast


Current Version              Previous Versions:   1  2  3  4  5  6  7  8  9  

Terminal Aerodrome Forecast

688
FTUS42 KCAE 011700 CCA
TAFCAE
TAF COR
KCAE 011740Z 0118/0218 34006KT P6SM VCSH SCT020 OVC130
      TEMPO 0118/0120 -SHRA BKN020
     FM012300 03006KT P6SM VCSH SCT025 OVC050
      TEMPO 0123/0202 4SM SHRA BKN025
     FM020500 05005KT P6SM OVC015
     FM021000 VRB03KT 4SM BR OVC007
     FM021500 06005KT P6SM VCSH SCT015 BKN040=



Latest METAR

393
SAUS80 KWBC 012200 CCB
MTRCAE
METAR KCAE 012156Z 34006KT 10SM BKN015 26/21 A3002 RMK AO2 SLP161
T02560206


USA.gov is the U.S. government's official web portal to all federal, state and local government web resources and services.